Nearby METAR Reports

 

KSFM - Sanford Muni, Maine, USA
Distance from station: E 3mi, 5km
Updated: Sun, 20-Jan-2019 11:56pm EST
Overcast
Overcast
 Wind from W
Wind: W 16 mph , 26 km/h
Temperature: 5°F , -15°C
Wind Chill: -14°F , -26°C
Dew Point: -4°F , -20°C
Humidity: 66%
Barometer: 29.44 inHg , 997 hPa
Clouds: Overcast
Visibility: 10 miles , 16 km
Cloud details: Overcast 4300 ft
2019/01/21 04:56 KSFM 210456Z AUTO 27014KT 10SM OVC043 M15/M20 A2944 RMK AO2 SLP976 T11501200 FZRANO PNO $
KDAW - Rochester, New Hampshire, USA
Distance from station: SW 10mi, 16km
Updated: Sun, 20-Jan-2019 11:51pm EST
Mostly cloudy
Mostly cloudy
 Wind from WNW
Wind: WNW 10 mph , 17 km/h, Gust: 17 mph , 28 km/h
Temperature: 3°F , -16°C
Wind Chill: -12°F , -24°C
Dew Point: -8°F , -22°C
Humidity: 60%
Barometer: 29.44 inHg , 997 hPa
Clouds: Mostly cloudy
Visibility: 10 miles , 16 km
Cloud details: Mostly cloudy 3700 ft
2019/01/21 04:51 KDAW 210451Z AUTO 30009G15KT 250V310 10SM BKN037 M16/M22 A2944 RMK AO2 SLP974 T11561217 410671156
 
KPSM - Portsmouth/Pease, New Hampshire, USA
Distance from station: S 22mi, 36km
Updated: Sun, 20-Jan-2019 11:56pm EST
Overcast
Overcast
 Wind from W
Wind: W 13 mph , 20 km/h, Gust: 24 mph , 39 km/h
Temperature: 7°F , -14°C
Wind Chill: -9°F , -23°C
Dew Point: -6°F , -21°C
Humidity: 56%
Barometer: 29.46 inHg , 997.6 hPa
Clouds: Overcast
Visibility: 10 miles , 16 km
Cloud details: Overcast 3300 ft
2019/01/21 04:56 KPSM 210456Z 28011G21KT 10SM OVC033 M14/M21 A2946 RMK AO2A PK WND 30028/09 SLP980 T11441213 410611144
KPWM - Portland, Maine, USA
Distance from station: NE 30mi, 48km
Updated: Sun, 20-Jan-2019 11:51pm EST
Mostly cloudy
Mostly cloudy
 Wind from NNW
Wind: NNW 16 mph , 26 km/h, Gust: 24 mph , 39 km/h
Temperature: 12°F , -11°C
Wind Chill: -5°F , -21°C
Dew Point: -0°F , -18°C
Humidity: 57%
Barometer: 29.42 inHg , 996.3 hPa
Clouds: Mostly cloudy
Visibility: 10 miles , 16 km
Cloud details: Partly cloudy 3100 ft
Mostly cloudy 4200 ft
2019/01/21 04:51 KPWM 210451Z 33014G21KT 10SM SCT031 BKN042 M11/M18 A2942 RMK AO2 PK WND 33029/0359 SLP964 LAST T11111183 410721139 $
 
KLCI - Laconia Muni, New Hampshire, USA
Distance from station: WNW 34mi, 55km
Updated: Sun, 20-Jan-2019 11:56pm EST
Clear
Clear
 Wind from WSW
Wind: WSW 13 mph , 20 km/h, Gust: 23 mph , 37 km/h
Temperature: -0°F , -18°C
Wind Chill: -18°F , -28°C
Dew Point: -9°F , -23°C
Humidity: 65%
Barometer: 29.47 inHg , 998 hPa
Clouds: Clear
Visibility: 10 miles , 16 km
2019/01/21 04:56 KLCI 210456Z AUTO 25011G20KT 10SM CLR M18/M23 A2947 RMK AO2 SLP998 T11831233 410671183 FZRANO $
KCON - Concord, New Hampshire, USA
Distance from station: WSW 39mi, 62km
Updated: Sun, 20-Jan-2019 11:51pm EST
Clear
Clear
 Wind from WNW
Wind: WNW 18 mph , 30 km/h, Gust: 33 mph , 54 km/h
Temperature: 1°F , -17°C
Wind Chill: -20°F , -29°C
Dew Point: -9°F , -23°C
Humidity: 60%
Barometer: 29.52 inHg , 999.7 hPa
Clouds: Clear
Visibility: 10 miles , 16 km
2019/01/21 04:51 KCON 210451Z AUTO 30016G29KT 10SM CLR M17/M23 A2952 RMK AO2 PK WND 30034/0357 SLP004 T11721233 410611172
 
KIZG - Fryeburg, Maine, USA
Distance from station: NNW 42mi, 67km
Updated: Sun, 20-Jan-2019 11:54pm EST
Few Clouds
Few Clouds
 Wind from calm
Wind: Calm
Temperature: 5°F , -15°C
Dew Point: -2°F , -19°C
Humidity: 72%
Barometer: 29.41 inHg , 995.9 hPa
Clouds: Few Clouds
Visibility: 10 miles , 16 km
Cloud details: Few Clouds 2900 ft
2019/01/21 04:54 KIZG 210454Z AUTO 00000KT 10SM FEW029 M15/M19 A2941 RMK AO2 SLP968 T11501194 410891150
KMHT - Manchester, New Hampshire, USA
Distance from station: SW 46mi, 74km
Updated: Sun, 20-Jan-2019 11:53pm EST
Clear
Clear
 Wind from NW
Wind: NW 20 mph , 31 km/h, Gust: 37 mph , 59 km/h
Temperature: 3°F , -16°C
Wind Chill: -18°F , -28°C
Dew Point: -11°F , -24°C
Humidity: 50%
Barometer: 29.53 inHg , 1000 hPa
Clouds: Clear
Visibility: 10 miles , 16 km
2019/01/21 04:53 KMHT 210453Z 32017G32KT 10SM CLR M16/M24 A2953 RMK AO2 PK WND 30038/0413 SLP021 T11561239 410501156
 
KLWM - Lawrence, Massachusetts, USA
Distance from station: SSW 50mi, 80km
Updated: Sun, 20-Jan-2019 11:54pm EST
Clear
Clear
 Wind from WNW
Wind: WNW 16 mph , 26 km/h, Gust: 29 mph , 46 km/h
Temperature: 5°F , -15°C
Wind Chill: -14°F , -26°C
Dew Point: -9°F , -23°C
Humidity: 51%
Barometer: 29.54 inHg , 1000.3 hPa
Clouds: Clear
Visibility: 10 miles , 16 km
2019/01/21 04:54 KLWM 210454Z AUTO 29014G25KT 10SM CLR M15/M23 A2954 RMK AO2 PK WND 30030/0356 SLP004 T11501228 410111150